sensor_id;sensor_type;location;lat;lon;timestamp;P1;durP1;ratioP1;P2;durP2;ratioP2
25015;SDS011;13029;46.286;7.488;2023-04-29T00:01:43;0.40;;;0.30;;
25015;SDS011;13029;46.286;7.488;2023-04-29T00:04:09;0.30;;;0.30;;
25015;SDS011;13029;46.286;7.488;2023-04-29T00:06:34;0.40;;;0.40;;
25015;SDS011;13029;46.286;7.488;2023-04-29T00:08:59;0.80;;;0.40;;
25015;SDS011;13029;46.286;7.488;2023-04-29T00:11:25;1.20;;;0.50;;
25015;SDS011;13029;46.286;7.488;2023-04-29T00:13:50;0.85;;;0.50;;
25015;SDS011;13029;46.286;7.488;2023-04-29T00:16:15;2.78;;;0.65;;
25015;SDS011;13029;46.286;7.488;2023-04-29T00:18:40;1.15;;;0.50;;
25015;SDS011;13029;46.286;7.488;2023-04-29T00:21:06;0.95;;;0.50;;
25015;SDS011;13029;46.286;7.488;2023-04-29T00:23:32;2.78;;;0.55;;
25015;SDS011;13029;46.286;7.488;2023-04-29T00:25:57;0.95;;;0.52;;
25015;SDS011;13029;46.286;7.488;2023-04-29T00:28:23;1.08;;;0.63;;
25015;SDS011;13029;46.286;7.488;2023-04-29T00:30:48;1.67;;;0.68;;
25015;SDS011;13029;46.286;7.488;2023-04-29T00:33:14;2.30;;;0.55;;
25015;SDS011;13029;46.286;7.488;2023-04-29T00:35:39;0.63;;;0.40;;
25015;SDS011;13029;46.286;7.488;2023-04-29T00:38:04;0.20;;;0.20;;
25015;SDS011;13029;46.286;7.488;2023-04-29T00:40:29;0.70;;;0.30;;
25015;SDS011;13029;46.286;7.488;2023-04-29T00:42:55;5.50;;;0.90;;
25015;SDS011;13029;46.286;7.488;2023-04-29T00:45:21;0.75;;;0.30;;
25015;SDS011;13029;46.286;7.488;2023-04-29T00:47:46;1.65;;;0.47;;
25015;SDS011;13029;46.286;7.488;2023-04-29T00:50:11;1.15;;;0.20;;
25015;SDS011;13029;46.286;7.488;2023-04-29T00:52:37;0.40;;;0.32;;
25015;SDS011;13029;46.286;7.488;2023-04-29T00:55:04;1.85;;;0.40;;
25015;SDS011;13029;46.286;7.488;2023-04-29T00:57:30;0.75;;;0.40;;
25015;SDS011;13029;46.286;7.488;2023-04-29T00:59:56;1.25;;;0.50;;
25015;SDS011;13029;46.286;7.488;2023-04-29T01:02:22;0.85;;;0.38;;
25015;SDS011;13029;46.286;7.488;2023-04-29T01:04:47;2.40;;;0.40;;
25015;SDS011;13029;46.286;7.488;2023-04-29T01:07:13;3.00;;;0.50;;
25015;SDS011;13029;46.286;7.488;2023-04-29T01:17:49;2.42;;;0.43;;
25015;SDS011;13029;46.286;7.488;2023-04-29T01:20:16;6.07;;;0.80;;
25015;SDS011;13029;46.286;7.488;2023-04-29T01:22:42;2.20;;;0.43;;
25015;SDS011;13029;46.286;7.488;2023-04-29T01:25:07;3.00;;;0.63;;
25015;SDS011;13029;46.286;7.488;2023-04-29T01:27:50;2.40;;;0.60;;
25015;SDS011;13029;46.286;7.488;2023-04-29T01:33:17;2.85;;;0.60;;
25015;SDS011;13029;46.286;7.488;2023-04-29T01:36:03;6.30;;;0.68;;
25015;SDS011;13029;46.286;7.488;2023-04-29T01:38:46;0.30;;;0.30;;
25015;SDS011;13029;46.286;7.488;2023-04-29T01:41:26;3.78;;;0.30;;
25015;SDS011;13029;46.286;7.488;2023-04-29T01:43:58;1.90;;;0.30;;
25015;SDS011;13029;46.286;7.488;2023-04-29T01:46:25;3.97;;;0.30;;
25015;SDS011;13029;46.286;7.488;2023-04-29T01:48:54;1.92;;;0.47;;
25015;SDS011;13029;46.286;7.488;2023-04-29T01:51:20;2.75;;;0.45;;
25015;SDS011;13029;46.286;7.488;2023-04-29T01:53:45;3.28;;;0.40;;
25015;SDS011;13029;46.286;7.488;2023-04-29T01:56:11;1.20;;;0.28;;
25015;SDS011;13029;46.286;7.488;2023-04-29T01:58:36;0.55;;;0.30;;
25015;SDS011;13029;46.286;7.488;2023-04-29T02:01:01;1.10;;;0.57;;
25015;SDS011;13029;46.286;7.488;2023-04-29T02:03:27;1.00;;;0.40;;
25015;SDS011;13029;46.286;7.488;2023-04-29T02:05:52;1.67;;;0.40;;
25015;SDS011;13029;46.286;7.488;2023-04-29T02:08:18;0.85;;;0.30;;
25015;SDS011;13029;46.286;7.488;2023-04-29T02:10:53;1.13;;;0.30;;
25015;SDS011;13029;46.286;7.488;2023-04-29T02:13:19;2.45;;;0.40;;
25015;SDS011;13029;46.286;7.488;2023-04-29T02:15:44;0.77;;;0.30;;
25015;SDS011;13029;46.286;7.488;2023-04-29T02:18:09;0.73;;;0.22;;
25015;SDS011;13029;46.286;7.488;2023-04-29T02:20:35;3.92;;;0.40;;
25015;SDS011;13029;46.286;7.488;2023-04-29T02:23:00;2.95;;;0.50;;
25015;SDS011;13029;46.286;7.488;2023-04-29T02:25:25;1.90;;;0.30;;
25015;SDS011;13029;46.286;7.488;2023-04-29T02:27:51;1.92;;;0.40;;
25015;SDS011;13029;46.286;7.488;2023-04-29T02:30:16;0.88;;;0.40;;
25015;SDS011;13029;46.286;7.488;2023-04-29T02:32:41;2.20;;;0.40;;
25015;SDS011;13029;46.286;7.488;2023-04-29T02:35:07;1.23;;;0.40;;
25015;SDS011;13029;46.286;7.488;2023-04-29T02:37:32;2.08;;;0.57;;
25015;SDS011;13029;46.286;7.488;2023-04-29T02:39:58;1.45;;;0.50;;
25015;SDS011;13029;46.286;7.488;2023-04-29T02:42:23;4.00;;;0.68;;
25015;SDS011;13029;46.286;7.488;2023-04-29T02:44:49;2.05;;;0.80;;
25015;SDS011;13029;46.286;7.488;2023-04-29T02:47:14;1.60;;;0.60;;
25015;SDS011;13029;46.286;7.488;2023-04-29T02:49:39;2.08;;;0.65;;
25015;SDS011;13029;46.286;7.488;2023-04-29T02:52:05;2.00;;;0.50;;
25015;SDS011;13029;46.286;7.488;2023-04-29T02:54:30;1.17;;;0.80;;
25015;SDS011;13029;46.286;7.488;2023-04-29T02:56:55;1.75;;;0.50;;
25015;SDS011;13029;46.286;7.488;2023-04-29T02:59:21;1.48;;;0.40;;
25015;SDS011;13029;46.286;7.488;2023-04-29T03:01:46;1.55;;;0.55;;
25015;SDS011;13029;46.286;7.488;2023-04-29T03:04:12;1.25;;;0.38;;
25015;SDS011;13029;46.286;7.488;2023-04-29T03:06:37;0.80;;;0.57;;
25015;SDS011;13029;46.286;7.488;2023-04-29T03:09:03;0.30;;;0.30;;
25015;SDS011;13029;46.286;7.488;2023-04-29T03:11:28;2.78;;;0.30;;
25015;SDS011;13029;46.286;7.488;2023-04-29T03:13:53;1.58;;;0.52;;
25015;SDS011;13029;46.286;7.488;2023-04-29T03:16:19;3.53;;;0.60;;
25015;SDS011;13029;46.286;7.488;2023-04-29T03:18:45;1.67;;;0.82;;
25015;SDS011;13029;46.286;7.488;2023-04-29T03:21:10;2.72;;;0.55;;
25015;SDS011;13029;46.286;7.488;2023-04-29T03:23:36;3.58;;;1.00;;
25015;SDS011;13029;46.286;7.488;2023-04-29T03:26:03;2.67;;;0.65;;
25015;SDS011;13029;46.286;7.488;2023-04-29T03:28:29;1.50;;;0.60;;
25015;SDS011;13029;46.286;7.488;2023-04-29T03:30:54;1.27;;;0.45;;
25015;SDS011;13029;46.286;7.488;2023-04-29T03:33:20;1.75;;;0.40;;
25015;SDS011;13029;46.286;7.488;2023-04-29T03:35:46;0.77;;;0.40;;
25015;SDS011;13029;46.286;7.488;2023-04-29T03:38:11;2.03;;;0.47;;
25015;SDS011;13029;46.286;7.488;2023-04-29T03:40:36;1.50;;;0.40;;
25015;SDS011;13029;46.286;7.488;2023-04-29T03:43:02;0.68;;;0.50;;
25015;SDS011;13029;46.286;7.488;2023-04-29T03:45:27;0.47;;;0.40;;
25015;SDS011;13029;46.286;7.488;2023-04-29T03:47:53;1.17;;;0.47;;
25015;SDS011;13029;46.286;7.488;2023-04-29T03:50:18;1.88;;;0.65;;
25015;SDS011;13029;46.286;7.488;2023-04-29T03:52:44;4.43;;;1.40;;
25015;SDS011;13029;46.286;7.488;2023-04-29T03:55:09;2.30;;;0.52;;
25015;SDS011;13029;46.286;7.488;2023-04-29T03:57:35;3.30;;;0.50;;
25015;SDS011;13029;46.286;7.488;2023-04-29T04:00:00;2.35;;;0.55;;
25015;SDS011;13029;46.286;7.488;2023-04-29T04:02:26;0.77;;;0.50;;
25015;SDS011;13029;46.286;7.488;2023-04-29T04:04:51;5.28;;;0.47;;
25015;SDS011;13029;46.286;7.488;2023-04-29T04:07:19;3.53;;;0.70;;
25015;SDS011;13029;46.286;7.488;2023-04-29T04:09:44;1.10;;;0.47;;
25015;SDS011;13029;46.286;7.488;2023-04-29T04:12:10;0.50;;;0.40;;
25015;SDS011;13029;46.286;7.488;2023-04-29T04:14:35;0.80;;;0.60;;
25015;SDS011;13029;46.286;7.488;2023-04-29T04:17:00;0.65;;;0.35;;
25015;SDS011;13029;46.286;7.488;2023-04-29T04:19:25;2.13;;;0.50;;
25015;SDS011;13029;46.286;7.488;2023-04-29T04:21:53;1.55;;;0.50;;
25015;SDS011;13029;46.286;7.488;2023-04-29T04:24:19;1.10;;;0.60;;
25015;SDS011;13029;46.286;7.488;2023-04-29T04:26:44;1.65;;;0.77;;
25015;SDS011;13029;46.286;7.488;2023-04-29T04:29:09;0.63;;;0.50;;
25015;SDS011;13029;46.286;7.488;2023-04-29T04:31:35;0.30;;;0.30;;
25015;SDS011;13029;46.286;7.488;2023-04-29T04:34:00;0.50;;;0.50;;
25015;SDS011;13029;46.286;7.488;2023-04-29T04:36:26;4.57;;;0.80;;
25015;SDS011;13029;46.286;7.488;2023-04-29T04:38:52;1.20;;;0.32;;
25015;SDS011;13029;46.286;7.488;2023-04-29T04:41:17;2.75;;;0.40;;
25015;SDS011;13029;46.286;7.488;2023-04-29T04:43:43;1.75;;;0.40;;
25015;SDS011;13029;46.286;7.488;2023-04-29T04:46:12;2.38;;;0.30;;
25015;SDS011;13029;46.286;7.488;2023-04-29T04:48:39;2.17;;;0.80;;
25015;SDS011;13029;46.286;7.488;2023-04-29T04:51:12;0.63;;;0.30;;
25015;SDS011;13029;46.286;7.488;2023-04-29T04:53:38;0.93;;;0.32;;
25015;SDS011;13029;46.286;7.488;2023-04-29T04:56:04;0.40;;;0.30;;
25015;SDS011;13029;46.286;7.488;2023-04-29T04:58:30;1.48;;;0.35;;
25015;SDS011;13029;46.286;7.488;2023-04-29T05:00:56;0.55;;;0.30;;
25015;SDS011;13029;46.286;7.488;2023-04-29T05:03:22;1.48;;;0.40;;
25015;SDS011;13029;46.286;7.488;2023-04-29T05:05:57;0.85;;;0.50;;
25015;SDS011;13029;46.286;7.488;2023-04-29T05:08:24;1.00;;;0.50;;
25015;SDS011;13029;46.286;7.488;2023-04-29T05:10:50;2.17;;;0.65;;
25015;SDS011;13029;46.286;7.488;2023-04-29T05:13:16;4.25;;;0.65;;
25015;SDS011;13029;46.286;7.488;2023-04-29T05:15:41;0.95;;;0.70;;
25015;SDS011;13029;46.286;7.488;2023-04-29T05:18:07;1.08;;;0.73;;
25015;SDS011;13029;46.286;7.488;2023-04-29T05:20:32;1.35;;;0.70;;
25015;SDS011;13029;46.286;7.488;2023-04-29T05:22:57;1.98;;;0.50;;
25015;SDS011;13029;46.286;7.488;2023-04-29T05:25:23;3.95;;;0.70;;
25015;SDS011;13029;46.286;7.488;2023-04-29T05:27:48;2.33;;;0.70;;
25015;SDS011;13029;46.286;7.488;2023-04-29T05:30:13;3.10;;;0.65;;
25015;SDS011;13029;46.286;7.488;2023-04-29T05:32:39;1.35;;;0.68;;
25015;SDS011;13029;46.286;7.488;2023-04-29T05:35:05;7.50;;;1.17;;
25015;SDS011;13029;46.286;7.488;2023-04-29T05:37:30;4.00;;;0.80;;
25015;SDS011;13029;46.286;7.488;2023-04-29T05:39:56;4.38;;;1.02;;
25015;SDS011;13029;46.286;7.488;2023-04-29T05:42:22;3.70;;;0.70;;
25015;SDS011;13029;46.286;7.488;2023-04-29T05:44:47;3.97;;;0.80;;
25015;SDS011;13029;46.286;7.488;2023-04-29T05:47:13;1.85;;;0.70;;
25015;SDS011;13029;46.286;7.488;2023-04-29T05:49:39;1.05;;;0.47;;
25015;SDS011;13029;46.286;7.488;2023-04-29T05:52:04;2.55;;;0.60;;
25015;SDS011;13029;46.286;7.488;2023-04-29T05:54:31;1.75;;;0.55;;
25015;SDS011;13029;46.286;7.488;2023-04-29T05:56:57;4.78;;;1.20;;
25015;SDS011;13029;46.286;7.488;2023-04-29T05:59:22;1.30;;;0.73;;
25015;SDS011;13029;46.286;7.488;2023-04-29T06:01:47;1.17;;;0.50;;
25015;SDS011;13029;46.286;7.488;2023-04-29T06:04:13;4.78;;;0.80;;
25015;SDS011;13029;46.286;7.488;2023-04-29T06:06:38;1.83;;;0.43;;
25015;SDS011;13029;46.286;7.488;2023-04-29T06:09:03;1.65;;;0.60;;
25015;SDS011;13029;46.286;7.488;2023-04-29T06:11:29;4.72;;;0.65;;
25015;SDS011;13029;46.286;7.488;2023-04-29T06:13:54;0.88;;;0.50;;
25015;SDS011;13029;46.286;7.488;2023-04-29T06:16:19;3.42;;;0.88;;
25015;SDS011;13029;46.286;7.488;2023-04-29T06:18:45;0.80;;;0.40;;
25015;SDS011;13029;46.286;7.488;2023-04-29T06:21:10;2.22;;;0.40;;
25015;SDS011;13029;46.286;7.488;2023-04-29T06:23:36;1.00;;;0.60;;
25015;SDS011;13029;46.286;7.488;2023-04-29T06:26:01;3.25;;;0.50;;
25015;SDS011;13029;46.286;7.488;2023-04-29T06:28:26;3.30;;;1.15;;
25015;SDS011;13029;46.286;7.488;2023-04-29T06:30:52;1.13;;;0.65;;
25015;SDS011;13029;46.286;7.488;2023-04-29T06:33:18;1.10;;;0.50;;
25015;SDS011;13029;46.286;7.488;2023-04-29T06:35:43;1.13;;;0.45;;
25015;SDS011;13029;46.286;7.488;2023-04-29T06:38:08;0.77;;;0.50;;
25015;SDS011;13029;46.286;7.488;2023-04-29T06:40:34;0.30;;;0.30;;
25015;SDS011;13029;46.286;7.488;2023-04-29T06:42:59;0.65;;;0.50;;
25015;SDS011;13029;46.286;7.488;2023-04-29T06:45:26;0.40;;;0.40;;
25015;SDS011;13029;46.286;7.488;2023-04-29T06:47:52;3.33;;;0.60;;
25015;SDS011;13029;46.286;7.488;2023-04-29T06:50:17;5.35;;;2.08;;
25015;SDS011;13029;46.286;7.488;2023-04-29T06:52:42;3.53;;;1.20;;
25015;SDS011;13029;46.286;7.488;2023-04-29T06:55:08;1.88;;;0.95;;
25015;SDS011;13029;46.286;7.488;2023-04-29T06:57:35;1.50;;;0.90;;
25015;SDS011;13029;46.286;7.488;2023-04-29T07:00:00;2.92;;;1.20;;
25015;SDS011;13029;46.286;7.488;2023-04-29T07:02:26;2.40;;;1.20;;
25015;SDS011;13029;46.286;7.488;2023-04-29T07:04:52;1.52;;;0.70;;
25015;SDS011;13029;46.286;7.488;2023-04-29T07:07:17;1.13;;;0.70;;
25015;SDS011;13029;46.286;7.488;2023-04-29T07:09:43;2.53;;;0.80;;
25015;SDS011;13029;46.286;7.488;2023-04-29T07:12:08;3.72;;;1.10;;
25015;SDS011;13029;46.286;7.488;2023-04-29T07:14:33;1.40;;;0.90;;
25015;SDS011;13029;46.286;7.488;2023-04-29T07:17:01;2.42;;;1.13;;
25015;SDS011;13029;46.286;7.488;2023-04-29T07:19:26;1.70;;;1.10;;
25015;SDS011;13029;46.286;7.488;2023-04-29T07:21:51;1.58;;;0.88;;
25015;SDS011;13029;46.286;7.488;2023-04-29T07:24:17;2.03;;;1.00;;
25015;SDS011;13029;46.286;7.488;2023-04-29T07:26:42;1.77;;;0.70;;
25015;SDS011;13029;46.286;7.488;2023-04-29T07:29:09;2.72;;;1.00;;
25015;SDS011;13029;46.286;7.488;2023-04-29T07:31:34;1.98;;;1.17;;
25015;SDS011;13029;46.286;7.488;2023-04-29T07:33:59;1.65;;;1.40;;
25015;SDS011;13029;46.286;7.488;2023-04-29T07:36:25;5.40;;;1.20;;
25015;SDS011;13029;46.286;7.488;2023-04-29T07:38:52;2.65;;;1.10;;
25015;SDS011;13029;46.286;7.488;2023-04-29T07:41:18;133.25;;;4.82;;
25015;SDS011;13029;46.286;7.488;2023-04-29T07:43:43;166.18;;;5.50;;
25015;SDS011;13029;46.286;7.488;2023-04-29T07:46:08;1.98;;;1.00;;
25015;SDS011;13029;46.286;7.488;2023-04-29T07:48:37;3.00;;;0.80;;
25015;SDS011;13029;46.286;7.488;2023-04-29T07:51:03;0.80;;;0.68;;
25015;SDS011;13029;46.286;7.488;2023-04-29T07:53:29;1.52;;;0.85;;
25015;SDS011;13029;46.286;7.488;2023-04-29T07:55:54;1.80;;;1.10;;
25015;SDS011;13029;46.286;7.488;2023-04-29T07:58:20;2.63;;;0.73;;
25015;SDS011;13029;46.286;7.488;2023-04-29T08:00:45;4.93;;;0.68;;
25015;SDS011;13029;46.286;7.488;2023-04-29T08:03:11;3.42;;;0.75;;
25015;SDS011;13029;46.286;7.488;2023-04-29T08:05:37;1.70;;;0.80;;
25015;SDS011;13029;46.286;7.488;2023-04-29T08:08:02;1.77;;;0.63;;
25015;SDS011;13029;46.286;7.488;2023-04-29T08:10:27;1.63;;;0.80;;
25015;SDS011;13029;46.286;7.488;2023-04-29T08:12:53;1.10;;;0.93;;
25015;SDS011;13029;46.286;7.488;2023-04-29T08:15:18;2.58;;;1.52;;
25015;SDS011;13029;46.286;7.488;2023-04-29T08:17:44;6.28;;;1.23;;
25015;SDS011;13029;46.286;7.488;2023-04-29T08:20:09;2.47;;;1.50;;
25015;SDS011;13029;46.286;7.488;2023-04-29T08:22:35;5.47;;;1.50;;
25015;SDS011;13029;46.286;7.488;2023-04-29T08:25:02;0.82;;;0.70;;
25015;SDS011;13029;46.286;7.488;2023-04-29T08:27:29;1.80;;;0.93;;
25015;SDS011;13029;46.286;7.488;2023-04-29T08:29:54;414.27;;;11.23;;
25015;SDS011;13029;46.286;7.488;2023-04-29T08:32:20;133.95;;;5.30;;
25015;SDS011;13029;46.286;7.488;2023-04-29T08:34:45;3.08;;;1.90;;
25015;SDS011;13029;46.286;7.488;2023-04-29T08:37:10;1.70;;;1.20;;
25015;SDS011;13029;46.286;7.488;2023-04-29T08:39:36;1.38;;;1.00;;
25015;SDS011;13029;46.286;7.488;2023-04-29T08:42:08;1.52;;;1.00;;
25015;SDS011;13029;46.286;7.488;2023-04-29T08:44:33;1.65;;;1.08;;
25015;SDS011;13029;46.286;7.488;2023-04-29T08:47:00;1.40;;;1.00;;
25015;SDS011;13029;46.286;7.488;2023-04-29T08:49:27;3.95;;;0.93;;
25015;SDS011;13029;46.286;7.488;2023-04-29T08:54:21;2.87;;;1.90;;
25015;SDS011;13029;46.286;7.488;2023-04-29T08:56:47;2.03;;;1.60;;
25015;SDS011;13029;46.286;7.488;2023-04-29T08:59:13;2.45;;;1.23;;
25015;SDS011;13029;46.286;7.488;2023-04-29T09:01:39;0.40;;;0.40;;
25015;SDS011;13029;46.286;7.488;2023-04-29T09:04:11;1.77;;;0.88;;
25015;SDS011;13029;46.286;7.488;2023-04-29T09:06:46;4.65;;;1.80;;
25015;SDS011;13029;46.286;7.488;2023-04-29T09:09:11;13.38;;;2.47;;
25015;SDS011;13029;46.286;7.488;2023-04-29T09:11:38;2.80;;;1.63;;
25015;SDS011;13029;46.286;7.488;2023-04-29T09:14:04;2.47;;;1.20;;
25015;SDS011;13029;46.286;7.488;2023-04-29T09:16:29;4.05;;;1.75;;
25015;SDS011;13029;46.286;7.488;2023-04-29T09:18:55;3.13;;;1.80;;
25015;SDS011;13029;46.286;7.488;2023-04-29T09:21:24;26.55;;;2.22;;
25015;SDS011;13029;46.286;7.488;2023-04-29T09:23:57;1.58;;;1.40;;
25015;SDS011;13029;46.286;7.488;2023-04-29T09:26:24;1.73;;;1.38;;
25015;SDS011;13029;46.286;7.488;2023-04-29T09:31:36;2.60;;;1.63;;
25015;SDS011;13029;46.286;7.488;2023-04-29T09:34:02;1.58;;;1.10;;
25015;SDS011;13029;46.286;7.488;2023-04-29T09:36:46;2.30;;;0.90;;
25015;SDS011;13029;46.286;7.488;2023-04-29T09:39:16;3.03;;;0.80;;
25015;SDS011;13029;46.286;7.488;2023-04-29T09:44:17;3.78;;;1.23;;
25015;SDS011;13029;46.286;7.488;2023-04-29T09:46:42;3.47;;;1.35;;
25015;SDS011;13029;46.286;7.488;2023-04-29T09:49:21;2.65;;;1.38;;
25015;SDS011;13029;46.286;7.488;2023-04-29T09:51:52;4.20;;;1.80;;
25015;SDS011;13029;46.286;7.488;2023-04-29T09:54:28;3.90;;;1.60;;
25015;SDS011;13029;46.286;7.488;2023-04-29T09:56:55;8.48;;;2.47;;
25015;SDS011;13029;46.286;7.488;2023-04-29T09:59:22;10.80;;;3.42;;
25015;SDS011;13029;46.286;7.488;2023-04-29T10:01:49;13.52;;;3.40;;
25015;SDS011;13029;46.286;7.488;2023-04-29T10:04:22;4.20;;;2.40;;
25015;SDS011;13029;46.286;7.488;2023-04-29T10:06:49;3.67;;;2.08;;
25015;SDS011;13029;46.286;7.488;2023-04-29T10:09:18;4.43;;;1.80;;
25015;SDS011;13029;46.286;7.488;2023-04-29T10:11:44;4.07;;;1.75;;
25015;SDS011;13029;46.286;7.488;2023-04-29T10:14:17;2.92;;;1.80;;
25015;SDS011;13029;46.286;7.488;2023-04-29T10:16:47;5.95;;;1.80;;
25015;SDS011;13029;46.286;7.488;2023-04-29T10:19:17;1.35;;;1.23;;
25015;SDS011;13029;46.286;7.488;2023-04-29T10:21:44;2.83;;;1.67;;
25015;SDS011;13029;46.286;7.488;2023-04-29T10:24:10;2.40;;;1.42;;
25015;SDS011;13029;46.286;7.488;2023-04-29T10:26:37;2.42;;;1.42;;
25015;SDS011;13029;46.286;7.488;2023-04-29T10:29:04;2.25;;;1.40;;
25015;SDS011;13029;46.286;7.488;2023-04-29T10:31:29;3.45;;;1.45;;
25015;SDS011;13029;46.286;7.488;2023-04-29T10:33:55;1.38;;;1.25;;
25015;SDS011;13029;46.286;7.488;2023-04-29T10:36:21;1.73;;;1.17;;
25015;SDS011;13029;46.286;7.488;2023-04-29T10:38:48;2.20;;;1.13;;
25015;SDS011;13029;46.286;7.488;2023-04-29T10:41:20;4.03;;;1.55;;
25015;SDS011;13029;46.286;7.488;2023-04-29T10:43:48;3.40;;;1.38;;
25015;SDS011;13029;46.286;7.488;2023-04-29T10:48:42;1.23;;;1.10;;
25015;SDS011;13029;46.286;7.488;2023-04-29T10:51:07;1.83;;;1.30;;
25015;SDS011;13029;46.286;7.488;2023-04-29T10:53:32;5.05;;;1.20;;
25015;SDS011;13029;46.286;7.488;2023-04-29T10:55:59;1.40;;;1.30;;
25015;SDS011;13029;46.286;7.488;2023-04-29T11:01:09;1.75;;;1.15;;
25015;SDS011;13029;46.286;7.488;2023-04-29T11:03:49;2.95;;;1.25;;
25015;SDS011;13029;46.286;7.488;2023-04-29T11:06:19;4.75;;;1.17;;
25015;SDS011;13029;46.286;7.488;2023-04-29T11:08:46;3.60;;;1.25;;
25015;SDS011;13029;46.286;7.488;2023-04-29T11:11:12;1.65;;;1.25;;
25015;SDS011;13029;46.286;7.488;2023-04-29T11:13:38;2.40;;;1.40;;
25015;SDS011;13029;46.286;7.488;2023-04-29T11:16:04;5.07;;;2.92;;
25015;SDS011;13029;46.286;7.488;2023-04-29T11:18:31;2.85;;;1.67;;
25015;SDS011;13029;46.286;7.488;2023-04-29T11:23:29;7.18;;;2.55;;
25015;SDS011;13029;46.286;7.488;2023-04-29T11:25:56;2.90;;;1.35;;
25015;SDS011;13029;46.286;7.488;2023-04-29T11:28:21;2.67;;;1.48;;
25015;SDS011;13029;46.286;7.488;2023-04-29T11:30:49;2.67;;;1.50;;
25015;SDS011;13029;46.286;7.488;2023-04-29T11:33:15;1.48;;;1.30;;
25015;SDS011;13029;46.286;7.488;2023-04-29T11:35:40;3.08;;;1.27;;
25015;SDS011;13029;46.286;7.488;2023-04-29T11:38:06;3.03;;;1.33;;
25015;SDS011;13029;46.286;7.488;2023-04-29T11:40:31;3.67;;;1.33;;
25015;SDS011;13029;46.286;7.488;2023-04-29T11:42:57;2.55;;;1.23;;
25015;SDS011;13029;46.286;7.488;2023-04-29T11:45:22;3.20;;;1.40;;
25015;SDS011;13029;46.286;7.488;2023-04-29T11:47:48;1.35;;;1.20;;
25015;SDS011;13029;46.286;7.488;2023-04-29T11:50:14;2.55;;;1.40;;
25015;SDS011;13029;46.286;7.488;2023-04-29T11:52:41;1.85;;;1.40;;
25015;SDS011;13029;46.286;7.488;2023-04-29T11:55:08;2.53;;;1.33;;
25015;SDS011;13029;46.286;7.488;2023-04-29T11:57:34;1.30;;;1.00;;
25015;SDS011;13029;46.286;7.488;2023-04-29T12:00:00;3.22;;;1.20;;
25015;SDS011;13029;46.286;7.488;2023-04-29T12:02:29;1.15;;;0.90;;
25015;SDS011;13029;46.286;7.488;2023-04-29T12:04:58;2.17;;;1.33;;
25015;SDS011;13029;46.286;7.488;2023-04-29T12:07:26;2.63;;;1.60;;
25015;SDS011;13029;46.286;7.488;2023-04-29T12:09:53;3.13;;;1.50;;
25015;SDS011;13029;46.286;7.488;2023-04-29T12:12:19;2.53;;;1.70;;
25015;SDS011;13029;46.286;7.488;2023-04-29T12:14:45;1.85;;;1.35;;
25015;SDS011;13029;46.286;7.488;2023-04-29T12:17:10;2.50;;;1.35;;
25015;SDS011;13029;46.286;7.488;2023-04-29T12:19:35;3.97;;;1.60;;
25015;SDS011;13029;46.286;7.488;2023-04-29T12:22:02;2.47;;;1.25;;
25015;SDS011;13029;46.286;7.488;2023-04-29T12:24:31;2.83;;;1.30;;
25015;SDS011;13029;46.286;7.488;2023-04-29T12:26:59;6.05;;;1.33;;
25015;SDS011;13029;46.286;7.488;2023-04-29T12:29:24;2.38;;;1.48;;
25015;SDS011;13029;46.286;7.488;2023-04-29T12:31:50;4.03;;;1.55;;
25015;SDS011;13029;46.286;7.488;2023-04-29T12:34:15;3.85;;;1.85;;
25015;SDS011;13029;46.286;7.488;2023-04-29T12:36:41;4.60;;;2.13;;
25015;SDS011;13029;46.286;7.488;2023-04-29T12:39:06;4.53;;;1.70;;
25015;SDS011;13029;46.286;7.488;2023-04-29T12:41:35;3.65;;;1.63;;
25015;SDS011;13029;46.286;7.488;2023-04-29T12:44:01;2.50;;;2.08;;
25015;SDS011;13029;46.286;7.488;2023-04-29T12:46:28;2.90;;;2.00;;
25015;SDS011;13029;46.286;7.488;2023-04-29T12:49:00;3.83;;;2.80;;
25015;SDS011;13029;46.286;7.488;2023-04-29T12:51:26;6.20;;;2.55;;
25015;SDS011;13029;46.286;7.488;2023-04-29T12:53:51;3.60;;;2.50;;
25015;SDS011;13029;46.286;7.488;2023-04-29T12:56:17;3.15;;;2.38;;
25015;SDS011;13029;46.286;7.488;2023-04-29T12:58:42;3.05;;;2.60;;
25015;SDS011;13029;46.286;7.488;2023-04-29T13:01:07;2.20;;;2.00;;
25015;SDS011;13029;46.286;7.488;2023-04-29T13:03:33;2.42;;;2.17;;
25015;SDS011;13029;46.286;7.488;2023-04-29T13:05:59;3.55;;;1.80;;
25015;SDS011;13029;46.286;7.488;2023-04-29T13:08:26;2.65;;;1.77;;
25015;SDS011;13029;46.286;7.488;2023-04-29T13:10:51;2.45;;;2.10;;
25015;SDS011;13029;46.286;7.488;2023-04-29T13:13:17;3.08;;;2.00;;
25015;SDS011;13029;46.286;7.488;2023-04-29T13:15:43;3.95;;;1.80;;
25015;SDS011;13029;46.286;7.488;2023-04-29T13:18:08;2.05;;;1.67;;
25015;SDS011;13029;46.286;7.488;2023-04-29T13:20:34;4.20;;;2.00;;
25015;SDS011;13029;46.286;7.488;2023-04-29T13:22:59;4.25;;;2.10;;
25015;SDS011;13029;46.286;7.488;2023-04-29T13:25:24;2.10;;;1.90;;
25015;SDS011;13029;46.286;7.488;2023-04-29T13:27:50;2.30;;;1.92;;
25015;SDS011;13029;46.286;7.488;2023-04-29T13:30:15;2.50;;;2.20;;
25015;SDS011;13029;46.286;7.488;2023-04-29T13:32:41;4.00;;;2.20;;
25015;SDS011;13029;46.286;7.488;2023-04-29T13:35:06;3.42;;;2.50;;
25015;SDS011;13029;46.286;7.488;2023-04-29T13:37:32;4.20;;;2.50;;
25015;SDS011;13029;46.286;7.488;2023-04-29T13:39:58;2.58;;;2.38;;
25015;SDS011;13029;46.286;7.488;2023-04-29T13:42:23;2.33;;;2.13;;
25015;SDS011;13029;46.286;7.488;2023-04-29T13:44:48;2.00;;;1.80;;
25015;SDS011;13029;46.286;7.488;2023-04-29T13:47:14;3.08;;;1.83;;
25015;SDS011;13029;46.286;7.488;2023-04-29T13:49:40;2.85;;;2.00;;
25015;SDS011;13029;46.286;7.488;2023-04-29T13:52:09;2.97;;;1.77;;
25015;SDS011;13029;46.286;7.488;2023-04-29T13:54:35;2.65;;;1.42;;
25015;SDS011;13029;46.286;7.488;2023-04-29T13:57:00;1.13;;;0.93;;
25015;SDS011;13029;46.286;7.488;2023-04-29T13:59:32;1.35;;;1.02;;
25015;SDS011;13029;46.286;7.488;2023-04-29T14:01:57;1.05;;;0.90;;
25015;SDS011;13029;46.286;7.488;2023-04-29T14:04:23;0.80;;;0.70;;
25015;SDS011;13029;46.286;7.488;2023-04-29T14:06:49;1.02;;;0.60;;
25015;SDS011;13029;46.286;7.488;2023-04-29T14:09:15;1.00;;;0.70;;
25015;SDS011;13029;46.286;7.488;2023-04-29T14:11:42;0.90;;;0.60;;
25015;SDS011;13029;46.286;7.488;2023-04-29T14:14:07;0.85;;;0.50;;
25015;SDS011;13029;46.286;7.488;2023-04-29T14:16:33;1.25;;;0.63;;
25015;SDS011;13029;46.286;7.488;2023-04-29T14:18:58;2.42;;;0.68;;
25015;SDS011;13029;46.286;7.488;2023-04-29T14:21:23;0.90;;;0.68;;
25015;SDS011;13029;46.286;7.488;2023-04-29T14:23:50;2.25;;;0.70;;
25015;SDS011;13029;46.286;7.488;2023-04-29T14:26:15;1.85;;;0.63;;
25015;SDS011;13029;46.286;7.488;2023-04-29T14:28:41;0.80;;;0.73;;
25015;SDS011;13029;46.286;7.488;2023-04-29T14:31:06;0.65;;;0.60;;
25015;SDS011;13029;46.286;7.488;2023-04-29T14:33:31;5.68;;;0.80;;
25015;SDS011;13029;46.286;7.488;2023-04-29T14:35:57;0.93;;;0.40;;
25015;SDS011;13029;46.286;7.488;2023-04-29T14:38:24;0.65;;;0.50;;
25015;SDS011;13029;46.286;7.488;2023-04-29T14:40:50;0.70;;;0.50;;
25015;SDS011;13029;46.286;7.488;2023-04-29T14:43:15;2.17;;;0.40;;
25015;SDS011;13029;46.286;7.488;2023-04-29T14:45:40;1.15;;;0.50;;
25015;SDS011;13029;46.286;7.488;2023-04-29T14:48:06;0.88;;;0.50;;
25015;SDS011;13029;46.286;7.488;2023-04-29T14:50:32;0.98;;;0.60;;
25015;SDS011;13029;46.286;7.488;2023-04-29T14:52:57;0.65;;;0.50;;
25015;SDS011;13029;46.286;7.488;2023-04-29T14:55:23;2.40;;;0.60;;
25015;SDS011;13029;46.286;7.488;2023-04-29T14:57:49;1.23;;;0.60;;
25015;SDS011;13029;46.286;7.488;2023-04-29T15:00:14;0.68;;;0.68;;
25015;SDS011;13029;46.286;7.488;2023-04-29T15:02:40;1.05;;;0.70;;
25015;SDS011;13029;46.286;7.488;2023-04-29T15:05:05;2.33;;;0.50;;
25015;SDS011;13029;46.286;7.488;2023-04-29T15:07:31;0.88;;;0.55;;
25015;SDS011;13029;46.286;7.488;2023-04-29T15:09:57;1.40;;;0.50;;